Time;durP1;ratioP1;P1;durP2;ratioP2;P2;SDS_P1;SDS_P2;PMS_P1;PMS_P2;Temp;Humidity;BMP_temperature;BMP_pressure;BME280_temperature;BME280_humidity;BME280_pressure;Samples;Min_cycle;Max_cycle;Signal;HPM_P1;HPM_P2
2024/03/03 00:00:52;;;;;;;12.57;12.27;;;;;;;;;;5027183;28;20502;-74
2024/03/03 00:03:20;;;;;;;11.93;11.63;;;;;;;;;;5027899;28;20544;-75
2024/03/03 00:05:48;;;;;;;12.77;12.37;;;;;;;;;;5027010;28;21000;-75
2024/03/03 00:08:15;;;;;;;12.97;12.57;;;;;;;;;;5020274;28;20572;-74
2024/03/03 00:10:42;;;;;;;12.43;12.13;;;;;;;;;;5028207;28;20463;-74
2024/03/03 00:13:09;;;;;;;12.40;12.10;;;;;;;;;;5023888;28;20595;-72
2024/03/03 00:15:36;;;;;;;12.40;12.10;;;;;;;;;;5028814;28;20459;-74
2024/03/03 00:18:05;;;;;;;12.23;11.93;;;;;;;;;;5029258;28;20464;-73
2024/03/03 00:20:33;;;;;;;12.23;11.93;;;;;;;;;;5028407;28;20465;-74
2024/03/03 00:23:01;;;;;;;12.30;12.00;;;;;;;;;;5021528;28;20943;-75
2024/03/03 00:25:28;;;;;;;11.97;11.67;;;;;;;;;;5026480;28;20472;-74
2024/03/03 00:27:55;;;;;;;12.10;11.80;;;;;;;;;;5024727;28;20473;-75
2024/03/03 00:30:22;;;;;;;12.10;11.80;;;;;;;;;;5021307;28;20508;-75
2024/03/03 00:32:49;;;;;;;11.87;11.57;;;;;;;;;;5029487;28;20467;-73
2024/03/03 00:35:17;;;;;;;11.47;11.17;;;;;;;;;;5023269;28;20462;-74
2024/03/03 00:37:45;;;;;;;11.63;11.33;;;;;;;;;;5022196;28;20553;-74
2024/03/03 00:40:13;;;;;;;12.10;11.80;;;;;;;;;;5024382;28;20831;-73
2024/03/03 00:42:40;;;;;;;11.27;10.97;;;;;;;;;;5026073;28;20482;-75
2024/03/03 00:45:07;;;;;;;12.10;11.80;;;;;;;;;;5023513;28;20981;-75
2024/03/03 00:47:35;;;;;;;11.93;11.63;;;;;;;;;;5029175;28;20458;-74
2024/03/03 00:50:02;;;;;;;12.80;12.40;;;;;;;;;;5025819;28;20500;-74
2024/03/03 00:52:29;;;;;;;12.20;11.90;;;;;;;;;;5025855;28;20856;-75
2024/03/03 00:54:58;;;;;;;12.17;11.87;;;;;;;;;;5026824;28;20482;-75
2024/03/03 00:57:25;;;;;;;11.70;11.40;;;;;;;;;;5021578;28;20468;-75
2024/03/03 00:59:52;;;;;;;11.80;11.50;;;;;;;;;;5000387;28;20468;-74
2024/03/03 01:02:20;;;;;;;11.83;11.53;;;;;;;;;;4993952;28;20627;-75
2024/03/03 01:04:47;;;;;;;11.93;11.63;;;;;;;;;;4993804;28;20491;-75
2024/03/03 01:07:15;;;;;;;12.27;11.97;;;;;;;;;;4993614;28;20742;-73
2024/03/03 01:09:42;;;;;;;12.20;11.90;;;;;;;;;;4994198;28;20478;-73
2024/03/03 01:12:10;;;;;;;12.00;11.70;;;;;;;;;;4994457;28;20839;-75
2024/03/03 01:14:37;;;;;;;11.67;11.37;;;;;;;;;;4993754;28;20468;-74
2024/03/03 01:17:06;;;;;;;11.33;11.03;;;;;;;;;;4992086;28;20468;-75
2024/03/03 01:19:33;;;;;;;11.63;11.33;;;;;;;;;;4994325;28;21163;-74
2024/03/03 01:22:00;;;;;;;11.70;11.40;;;;;;;;;;4992438;28;20461;-73
2024/03/03 01:24:27;;;;;;;12.00;11.70;;;;;;;;;;4992764;28;20631;-75
2024/03/03 01:26:55;;;;;;;11.50;11.20;;;;;;;;;;4994525;28;21346;-73
2024/03/03 01:29:23;;;;;;;12.00;11.70;;;;;;;;;;4994114;28;20468;-75
2024/03/03 01:31:51;;;;;;;11.87;11.57;;;;;;;;;;4992379;28;20471;-74
2024/03/03 01:34:18;;;;;;;11.33;11.03;;;;;;;;;;4993339;28;21874;-75
2024/03/03 01:36:45;;;;;;;11.70;11.40;;;;;;;;;;4992354;28;20490;-74
2024/03/03 01:39:13;;;;;;;11.30;11.00;;;;;;;;;;4991340;28;20468;-73
2024/03/03 01:41:45;;;;;;;11.33;11.03;;;;;;;;;;4993191;28;20789;-76
2024/03/03 01:44:12;;;;;;;11.20;10.90;;;;;;;;;;4993619;28;20498;-73
2024/03/03 01:46:41;;;;;;;11.13;10.83;;;;;;;;;;4992953;28;20602;-74
2024/03/03 01:49:08;;;;;;;11.27;10.97;;;;;;;;;;4992095;28;20465;-73
2024/03/03 01:51:36;;;;;;;11.57;11.27;;;;;;;;;;4994132;28;20474;-73
2024/03/03 01:54:04;;;;;;;11.50;11.20;;;;;;;;;;4992012;28;20569;-73
2024/03/03 01:56:32;;;;;;;10.60;10.40;;;;;;;;;;4993797;28;20468;-75
2024/03/03 01:58:59;;;;;;;11.20;10.90;;;;;;;;;;5003279;28;20503;-74
2024/03/03 02:01:29;;;;;;;10.97;10.67;;;;;;;;;;5027317;28;20489;-73
2024/03/03 02:03:59;;;;;;;11.20;10.90;;;;;;;;;;5020544;28;20618;-73
2024/03/03 02:06:29;;;;;;;10.70;10.50;;;;;;;;;;5032542;28;20454;-73
2024/03/03 02:08:57;;;;;;;11.23;10.93;;;;;;;;;;5025253;28;20474;-74
2024/03/03 02:11:24;;;;;;;10.73;10.53;;;;;;;;;;5027258;28;20468;-73
2024/03/03 02:13:51;;;;;;;11.23;10.93;;;;;;;;;;5027714;28;20473;-73
2024/03/03 02:16:19;;;;;;;10.30;10.10;;;;;;;;;;5023385;28;20451;-73
2024/03/03 02:18:46;;;;;;;11.20;10.90;;;;;;;;;;5027644;28;20461;-74
2024/03/03 02:21:14;;;;;;;10.90;10.70;;;;;;;;;;5027369;28;20468;-74
2024/03/03 02:23:44;;;;;;;10.43;10.23;;;;;;;;;;5018783;28;21007;-75
2024/03/03 02:26:11;;;;;;;10.37;10.17;;;;;;;;;;5027327;28;20541;-75
2024/03/03 02:28:40;;;;;;;10.03;9.83;;;;;;;;;;5027315;28;20481;-74
2024/03/03 02:31:07;;;;;;;10.87;10.67;;;;;;;;;;5025635;28;20944;-73
2024/03/03 02:33:34;;;;;;;10.53;10.33;;;;;;;;;;5031710;28;20455;-74
2024/03/03 02:36:01;;;;;;;10.53;10.33;;;;;;;;;;5028647;28;21132;-73
2024/03/03 02:38:29;;;;;;;10.63;10.43;;;;;;;;;;5026390;28;20464;-73
2024/03/03 02:40:57;;;;;;;11.10;10.80;;;;;;;;;;5029306;28;20887;-74
2024/03/03 02:43:24;;;;;;;11.10;10.80;;;;;;;;;;5030420;28;20586;-74
2024/03/03 02:45:51;;;;;;;11.33;11.03;;;;;;;;;;5027303;28;20470;-75
2024/03/03 02:48:20;;;;;;;11.07;10.83;;;;;;;;;;5028378;28;20514;-73
2024/03/03 02:50:47;;;;;;;11.00;10.73;;;;;;;;;;5031144;28;20954;-73
2024/03/03 02:53:14;;;;;;;11.43;11.13;;;;;;;;;;5026574;28;20937;-74
2024/03/03 02:55:42;;;;;;;11.20;10.90;;;;;;;;;;5027597;28;20463;-73
2024/03/03 02:58:10;;;;;;;10.97;10.70;;;;;;;;;;5025271;28;20490;-75
2024/03/03 03:00:37;;;;;;;11.10;10.80;;;;;;;;;;5030854;28;20470;-75
2024/03/03 03:03:05;;;;;;;10.17;9.97;;;;;;;;;;5023384;28;20885;-76
2024/03/03 03:05:32;;;;;;;10.40;10.20;;;;;;;;;;5034743;28;20865;-75
2024/03/03 03:07:59;;;;;;;11.03;10.77;;;;;;;;;;5031371;28;20552;-74
2024/03/03 03:10:27;;;;;;;10.53;10.33;;;;;;;;;;5027662;28;20549;-73
2024/03/03 03:12:54;;;;;;;10.40;10.20;;;;;;;;;;5028522;28;20496;-74
2024/03/03 03:15:22;;;;;;;10.77;10.57;;;;;;;;;;5023739;28;21095;-75
2024/03/03 03:17:49;;;;;;;11.33;11.03;;;;;;;;;;5029903;28;20555;-73
2024/03/03 03:20:17;;;;;;;10.90;10.70;;;;;;;;;;5030307;28;20609;-74
2024/03/03 03:22:44;;;;;;;10.37;10.17;;;;;;;;;;5029283;28;20470;-73
2024/03/03 03:25:12;;;;;;;11.20;10.90;;;;;;;;;;5025700;28;20503;-74
2024/03/03 03:27:40;;;;;;;11.07;10.80;;;;;;;;;;5029938;28;20459;-73
2024/03/03 03:30:07;;;;;;;11.00;10.80;;;;;;;;;;5017117;28;20601;-74
2024/03/03 03:32:36;;;;;;;11.27;10.97;;;;;;;;;;5025329;28;20472;-75
2024/03/03 03:35:04;;;;;;;10.90;10.70;;;;;;;;;;5030350;28;20456;-75
2024/03/03 03:37:31;;;;;;;10.73;10.53;;;;;;;;;;5025679;28;20492;-74
2024/03/03 03:39:58;;;;;;;10.30;10.10;;;;;;;;;;5028093;28;20470;-75
2024/03/03 03:42:26;;;;;;;11.13;10.83;;;;;;;;;;5030112;28;20472;-73
2024/03/03 03:44:53;;;;;;;10.70;10.50;;;;;;;;;;5025496;28;21005;-75
2024/03/03 03:47:20;;;;;;;10.70;10.50;;;;;;;;;;5020240;28;20840;-75
2024/03/03 03:49:49;;;;;;;10.73;10.53;;;;;;;;;;5022952;28;20486;-76
2024/03/03 03:52:16;;;;;;;10.80;10.60;;;;;;;;;;5029659;28;20968;-74
2024/03/03 03:54:43;;;;;;;10.60;10.40;;;;;;;;;;5028312;28;20471;-74
2024/03/03 03:57:10;;;;;;;10.73;10.53;;;;;;;;;;5030045;28;20931;-73
2024/03/03 03:59:37;;;;;;;10.57;10.37;;;;;;;;;;5025711;28;20459;-74
2024/03/03 04:02:05;;;;;;;10.83;10.63;;;;;;;;;;5023795;28;20553;-74
2024/03/03 04:04:35;;;;;;;10.30;10.10;;;;;;;;;;5030129;28;20498;-76
2024/03/03 04:07:04;;;;;;;10.80;10.60;;;;;;;;;;5022265;28;20467;-73
2024/03/03 04:09:32;;;;;;;10.90;10.70;;;;;;;;;;5020893;28;20455;-74
2024/03/03 04:11:59;;;;;;;10.50;10.30;;;;;;;;;;5029231;28;20461;-75
2024/03/03 04:14:26;;;;;;;10.77;10.57;;;;;;;;;;5020060;28;20963;-74
2024/03/03 04:16:54;;;;;;;11.20;10.90;;;;;;;;;;5023993;28;20937;-73
2024/03/03 04:19:21;;;;;;;11.30;11.00;;;;;;;;;;5021037;28;20466;-75
2024/03/03 04:21:49;;;;;;;10.47;10.27;;;;;;;;;;5029337;28;20547;-75
2024/03/03 04:24:18;;;;;;;10.93;10.73;;;;;;;;;;5022211;28;20931;-74
2024/03/03 04:26:45;;;;;;;10.73;10.53;;;;;;;;;;5029506;28;20460;-74
2024/03/03 04:29:12;;;;;;;11.77;11.47;;;;;;;;;;5029408;28;20581;-74
2024/03/03 04:31:43;;;;;;;12.00;11.70;;;;;;;;;;5019852;28;20472;-75
2024/03/03 04:34:11;;;;;;;11.80;11.50;;;;;;;;;;5027805;28;20517;-76
2024/03/03 04:36:38;;;;;;;10.80;10.60;;;;;;;;;;5029153;28;20469;-76
2024/03/03 04:39:07;;;;;;;11.30;11.00;;;;;;;;;;5029228;28;20554;-74
2024/03/03 04:41:35;;;;;;;10.90;10.70;;;;;;;;;;5025739;28;20468;-75
2024/03/03 04:44:02;;;;;;;10.80;10.60;;;;;;;;;;5023606;28;20485;-73
2024/03/03 04:46:29;;;;;;;11.77;11.47;;;;;;;;;;5026223;28;20462;-75
2024/03/03 04:48:56;;;;;;;11.27;10.97;;;;;;;;;;5024252;28;20474;-72
2024/03/03 04:51:23;;;;;;;11.23;10.97;;;;;;;;;;5021429;28;20831;-73
2024/03/03 04:53:51;;;;;;;11.53;11.23;;;;;;;;;;5028818;28;20519;-75
2024/03/03 04:56:18;;;;;;;10.93;10.73;;;;;;;;;;5026270;28;21011;-74
2024/03/03 04:58:47;;;;;;;10.87;10.67;;;;;;;;;;5024547;28;20453;-75
2024/03/03 05:01:15;;;;;;;11.50;11.20;;;;;;;;;;5026343;28;20840;-75
2024/03/03 05:03:43;;;;;;;17.57;16.87;;;;;;;;;;5022177;28;20531;-71
2024/03/03 05:06:11;;;;;;;18.37;17.57;;;;;;;;;;5024800;28;20702;-71
2024/03/03 05:08:38;;;;;;;17.97;17.17;;;;;;;;;;5020038;28;20943;-71
2024/03/03 05:11:06;;;;;;;17.00;16.30;;;;;;;;;;5023531;28;20472;-73
2024/03/03 05:13:33;;;;;;;17.20;16.50;;;;;;;;;;5020896;28;20463;-71
2024/03/03 05:16:02;;;;;;;16.63;15.93;;;;;;;;;;5020436;28;20478;-71
2024/03/03 05:18:29;;;;;;;16.17;15.57;;;;;;;;;;5026375;28;20561;-69
2024/03/03 05:20:57;;;;;;;16.50;15.80;;;;;;;;;;5013389;28;20463;-73
2024/03/03 05:23:25;;;;;;;16.30;15.70;;;;;;;;;;5020437;28;20475;-70
2024/03/03 05:25:52;;;;;;;15.80;15.20;;;;;;;;;;5022389;28;20490;-72
2024/03/03 05:28:20;;;;;;;15.40;14.90;;;;;;;;;;5024699;28;20465;-73
2024/03/03 05:30:47;;;;;;;14.73;14.23;;;;;;;;;;5023306;28;20468;-72
2024/03/03 05:33:15;;;;;;;14.37;13.87;;;;;;;;;;5025475;28;20543;-72
2024/03/03 05:35:42;;;;;;;13.90;13.50;;;;;;;;;;5022407;28;20471;-71
2024/03/03 05:38:10;;;;;;;12.77;12.40;;;;;;;;;;5018270;28;20977;-72
2024/03/03 05:40:37;;;;;;;12.27;11.97;;;;;;;;;;5015633;28;20985;-71
2024/03/03 05:43:05;;;;;;;11.47;11.17;;;;;;;;;;5019775;28;20466;-73
2024/03/03 05:45:33;;;;;;;11.63;11.33;;;;;;;;;;5022993;28;21089;-73
2024/03/03 05:48:01;;;;;;;10.37;10.17;;;;;;;;;;5015378;28;20492;-72
2024/03/03 05:50:30;;;;;;;10.10;9.90;;;;;;;;;;5025197;28;20948;-71
2024/03/03 05:52:58;;;;;;;10.30;10.10;;;;;;;;;;5012327;28;20918;-72
2024/03/03 05:55:25;;;;;;;9.97;9.77;;;;;;;;;;5026675;28;20472;-72
2024/03/03 05:57:52;;;;;;;10.07;9.87;;;;;;;;;;5021085;28;20468;-73
2024/03/03 06:00:19;;;;;;;10.40;10.20;;;;;;;;;;5014363;28;20567;-72
2024/03/03 06:02:46;;;;;;;10.40;10.20;;;;;;;;;;5021249;28;20492;-72
2024/03/03 06:05:13;;;;;;;10.03;9.83;;;;;;;;;;5026722;28;20589;-74
2024/03/03 06:07:42;;;;;;;10.30;10.10;;;;;;;;;;5028169;28;20461;-72
2024/03/03 06:10:09;;;;;;;10.33;10.13;;;;;;;;;;5024123;28;20477;-74
2024/03/03 06:12:36;;;;;;;10.33;10.13;;;;;;;;;;5022784;28;20579;-71
2024/03/03 06:15:05;;;;;;;10.40;10.20;;;;;;;;;;5026485;28;20961;-72
2024/03/03 06:17:32;;;;;;;11.40;11.10;;;;;;;;;;5029444;28;20555;-72
2024/03/03 06:20:00;;;;;;;10.67;10.47;;;;;;;;;;5020527;28;20472;-75
2024/03/03 06:22:27;;;;;;;11.50;11.20;;;;;;;;;;5018221;28;20471;-72
2024/03/03 06:24:55;;;;;;;9.90;9.70;;;;;;;;;;5021000;28;20525;-72
2024/03/03 06:27:23;;;;;;;11.10;10.80;;;;;;;;;;5029266;28;20556;-71
2024/03/03 06:29:50;;;;;;;11.00;10.70;;;;;;;;;;5016730;28;20564;-73
2024/03/03 06:32:17;;;;;;;12.00;11.70;;;;;;;;;;5023175;28;20544;-72
2024/03/03 06:34:48;;;;;;;11.30;11.00;;;;;;;;;;5021109;28;20462;-72
2024/03/03 06:37:15;;;;;;;10.80;10.60;;;;;;;;;;5027659;28;20461;-71
2024/03/03 06:39:44;;;;;;;10.13;9.93;;;;;;;;;;5024241;28;20466;-72
2024/03/03 06:42:12;;;;;;;10.37;10.17;;;;;;;;;;5025061;28;20474;-71
2024/03/03 06:44:42;;;;;;;9.73;9.53;;;;;;;;;;5025093;28;20466;-71
2024/03/03 06:47:09;;;;;;;10.03;9.83;;;;;;;;;;5028805;28;20495;-71
2024/03/03 06:49:37;;;;;;;9.87;9.67;;;;;;;;;;5024661;28;20465;-71
2024/03/03 06:52:04;;;;;;;10.50;10.30;;;;;;;;;;5023156;28;20690;-71
2024/03/03 06:54:31;;;;;;;10.13;9.93;;;;;;;;;;5027246;28;20481;-71
2024/03/03 06:56:58;;;;;;;9.87;9.67;;;;;;;;;;5023270;28;20474;-71
2024/03/03 06:59:27;;;;;;;9.93;9.73;;;;;;;;;;5026146;28;20514;-71
2024/03/03 07:01:54;;;;;;;9.33;9.13;;;;;;;;;;5026796;28;21098;-71
2024/03/03 07:04:24;;;;;;;10.07;9.87;;;;;;;;;;5018763;28;20461;-71
2024/03/03 07:06:51;;;;;;;9.70;9.50;;;;;;;;;;5021862;28;20492;-71
2024/03/03 07:09:22;;;;;;;9.50;9.30;;;;;;;;;;5018280;28;20471;-71
2024/03/03 07:11:49;;;;;;;9.97;9.77;;;;;;;;;;5020831;28;20939;-74
2024/03/03 07:14:17;;;;;;;9.50;9.30;;;;;;;;;;5027676;28;20465;-71
2024/03/03 07:16:46;;;;;;;10.00;9.80;;;;;;;;;;5025933;28;20828;-71
2024/03/03 07:19:13;;;;;;;10.20;10.00;;;;;;;;;;5028509;28;20939;-72
2024/03/03 07:21:40;;;;;;;10.40;10.20;;;;;;;;;;5021923;28;20461;-72
2024/03/03 07:24:08;;;;;;;10.40;10.20;;;;;;;;;;5018831;28;20878;-71
2024/03/03 07:26:35;;;;;;;10.47;10.27;;;;;;;;;;5022325;28;20496;-73
2024/03/03 07:29:02;;;;;;;10.60;10.40;;;;;;;;;;5025016;28;20478;-71
2024/03/03 07:31:30;;;;;;;10.83;10.53;;;;;;;;;;5026594;28;20507;-73
2024/03/03 07:33:58;;;;;;;11.10;10.80;;;;;;;;;;5018796;28;20475;-71
2024/03/03 07:36:26;;;;;;;10.33;10.13;;;;;;;;;;5025460;28;20456;-71
2024/03/03 07:38:53;;;;;;;10.90;10.60;;;;;;;;;;5026254;28;20812;-74
2024/03/03 07:41:20;;;;;;;10.33;10.13;;;;;;;;;;5020427;28;20560;-71
2024/03/03 07:43:47;;;;;;;11.03;10.73;;;;;;;;;;5023434;28;20959;-72
2024/03/03 07:46:14;;;;;;;11.43;11.13;;;;;;;;;;5022602;28;20489;-71
2024/03/03 07:48:41;;;;;;;11.03;10.73;;;;;;;;;;5028046;28;20452;-73
2024/03/03 07:51:10;;;;;;;11.33;11.03;;;;;;;;;;5018888;28;20468;-74
2024/03/03 07:53:37;;;;;;;11.57;11.27;;;;;;;;;;5027545;28;21016;-74
2024/03/03 07:56:04;;;;;;;11.83;11.53;;;;;;;;;;5022186;28;20473;-71
2024/03/03 07:58:36;;;;;;;12.23;11.93;;;;;;;;;;5024469;28;20718;-72
2024/03/03 08:01:04;;;;;;;11.70;11.40;;;;;;;;;;5023010;28;20638;-72
2024/03/03 08:03:31;;;;;;;12.30;11.97;;;;;;;;;;5024145;28;21127;-72
2024/03/03 08:05:58;;;;;;;13.00;12.60;;;;;;;;;;5024763;28;20496;-72
2024/03/03 08:08:26;;;;;;;13.13;12.73;;;;;;;;;;5028027;28;20478;-72
2024/03/03 08:10:54;;;;;;;13.23;12.83;;;;;;;;;;5017383;28;20473;-73
2024/03/03 08:13:21;;;;;;;12.90;12.50;;;;;;;;;;5017567;28;20961;-75
2024/03/03 08:15:48;;;;;;;13.30;12.90;;;;;;;;;;5020779;28;20466;-72
2024/03/03 08:18:15;;;;;;;13.10;12.70;;;;;;;;;;5025947;28;20958;-72
2024/03/03 08:20:42;;;;;;;12.77;12.37;;;;;;;;;;5015081;28;20907;-74
2024/03/03 08:23:10;;;;;;;13.20;12.80;;;;;;;;;;5024137;28;20468;-72
2024/03/03 08:25:38;;;;;;;12.90;12.50;;;;;;;;;;5021387;28;20659;-74
2024/03/03 08:28:06;;;;;;;13.10;12.70;;;;;;;;;;5025234;28;20464;-75
2024/03/03 08:30:33;;;;;;;13.50;13.10;;;;;;;;;;5020640;28;20571;-72
2024/03/03 08:33:00;;;;;;;13.33;12.93;;;;;;;;;;5018760;28;20481;-74
2024/03/03 08:35:27;;;;;;;13.17;12.77;;;;;;;;;;5028194;28;20468;-72
2024/03/03 08:37:55;;;;;;;13.23;12.83;;;;;;;;;;5017371;28;20469;-72
2024/03/03 08:40:23;;;;;;;13.00;12.60;;;;;;;;;;5021137;28;20503;-72
2024/03/03 08:42:52;;;;;;;13.37;12.97;;;;;;;;;;5017929;28;20473;-72
2024/03/03 08:45:19;;;;;;;13.40;13.00;;;;;;;;;;5024984;28;20492;-71
2024/03/03 08:47:45;;;;;;;12.40;12.10;;;;;;;;;;5026815;28;20944;-74
2024/03/03 08:50:14;;;;;;;12.40;12.10;;;;;;;;;;5018000;28;20571;-72
2024/03/03 08:52:41;;;;;;;12.67;12.27;;;;;;;;;;5022445;28;21036;-74
2024/03/03 08:55:09;;;;;;;12.37;12.07;;;;;;;;;;5023618;28;20842;-74
2024/03/03 08:57:36;;;;;;;12.77;12.37;;;;;;;;;;5017557;28;20472;-73
2024/03/03 09:00:12;;;;;;;12.87;12.47;;;;;;;;;;5024140;28;20469;-75
2024/03/03 09:02:40;;;;;;;12.30;12.00;;;;;;;;;;5016919;28;20535;-72
2024/03/03 09:05:08;;;;;;;12.10;11.80;;;;;;;;;;5013670;28;20469;-73
2024/03/03 09:07:35;;;;;;;12.33;12.03;;;;;;;;;;5020378;28;20479;-73
2024/03/03 09:10:02;;;;;;;12.00;11.70;;;;;;;;;;5018441;28;20462;-72
2024/03/03 09:12:30;;;;;;;12.30;12.00;;;;;;;;;;5021299;28;20459;-72
2024/03/03 09:14:57;;;;;;;11.90;11.60;;;;;;;;;;5016456;28;20469;-73
2024/03/03 09:17:25;;;;;;;12.20;11.90;;;;;;;;;;5016554;28;20469;-72
2024/03/03 09:19:53;;;;;;;12.43;12.13;;;;;;;;;;5017483;28;20548;-72
2024/03/03 09:22:20;;;;;;;11.60;11.30;;;;;;;;;;5019109;28;20474;-72
2024/03/03 09:24:48;;;;;;;11.70;11.40;;;;;;;;;;5018718;28;20469;-75
2024/03/03 09:27:15;;;;;;;11.80;11.50;;;;;;;;;;5018874;28;20502;-73
2024/03/03 09:29:42;;;;;;;11.97;11.67;;;;;;;;;;5019905;28;20553;-73
2024/03/03 09:32:09;;;;;;;11.67;11.37;;;;;;;;;;5014586;28;20988;-72
2024/03/03 09:34:38;;;;;;;12.30;12.00;;;;;;;;;;5016332;28;20470;-72
2024/03/03 09:37:05;;;;;;;12.33;12.03;;;;;;;;;;5011972;28;21044;-72
2024/03/03 09:39:33;;;;;;;12.13;11.83;;;;;;;;;;5014782;28;20826;-74
2024/03/03 09:42:00;;;;;;;12.03;11.73;;;;;;;;;;5016603;28;20982;-75
2024/03/03 09:44:27;;;;;;;12.83;12.43;;;;;;;;;;5021077;28;20523;-74
2024/03/03 09:49:39;;;;;;;12.73;12.33;;;;;;;;;;5015176;28;20461;-72
2024/03/03 09:52:10;;;;;;;13.17;12.77;;;;;;;;;;5016860;28;20460;-72
2024/03/03 09:54:39;;;;;;;13.30;12.90;;;;;;;;;;5020863;28;21076;-73
2024/03/03 09:57:10;;;;;;;13.00;12.60;;;;;;;;;;5022855;28;20517;-74
2024/03/03 09:59:38;;;;;;;12.40;12.10;;;;;;;;;;5021362;28;20468;-73
2024/03/03 10:02:07;;;;;;;12.50;12.20;;;;;;;;;;5017451;28;20596;-72
2024/03/03 10:04:35;;;;;;;12.23;11.93;;;;;;;;;;5016372;28;20472;-72
2024/03/03 10:07:05;;;;;;;11.83;11.53;;;;;;;;;;5024948;28;20513;-73
2024/03/03 10:09:33;;;;;;;11.97;11.67;;;;;;;;;;5016951;28;20481;-73
2024/03/03 10:12:01;;;;;;;12.33;12.03;;;;;;;;;;5025138;28;20473;-71
2024/03/03 10:14:28;;;;;;;12.87;12.47;;;;;;;;;;5016828;28;20982;-73
2024/03/03 10:16:56;;;;;;;12.10;11.80;;;;;;;;;;5013157;28;20470;-72
2024/03/03 10:19:26;;;;;;;12.30;12.00;;;;;;;;;;5018356;28;20463;-75
2024/03/03 10:21:56;;;;;;;12.20;11.90;;;;;;;;;;5025973;28;20532;-72
2024/03/03 10:24:25;;;;;;;11.97;11.67;;;;;;;;;;5020386;28;20476;-72
2024/03/03 10:26:53;;;;;;;11.80;11.50;;;;;;;;;;5024078;28;20504;-72
2024/03/03 10:29:22;;;;;;;12.57;12.27;;;;;;;;;;5021021;28;20470;-72
2024/03/03 10:31:49;;;;;;;11.93;11.63;;;;;;;;;;5020674;28;20453;-72
2024/03/03 10:34:18;;;;;;;11.67;11.37;;;;;;;;;;5014797;28;20465;-72
2024/03/03 10:36:45;;;;;;;12.10;11.80;;;;;;;;;;5016792;28;20464;-72
2024/03/03 10:39:12;;;;;;;11.57;11.27;;;;;;;;;;5025226;28;20463;-72
2024/03/03 10:41:41;;;;;;;11.40;11.10;;;;;;;;;;5022628;28;20465;-73
2024/03/03 10:44:09;;;;;;;11.20;10.90;;;;;;;;;;5029036;28;20948;-71
2024/03/03 10:46:37;;;;;;;11.97;11.67;;;;;;;;;;5020776;28;20979;-72
2024/03/03 10:49:04;;;;;;;12.60;12.30;;;;;;;;;;5024685;28;20464;-71
2024/03/03 10:51:31;;;;;;;11.87;11.57;;;;;;;;;;5020762;28;20469;-71
2024/03/03 10:54:00;;;;;;;11.87;11.57;;;;;;;;;;5027351;28;20488;-72
2024/03/03 10:56:28;;;;;;;12.60;12.30;;;;;;;;;;5028078;28;20464;-71
2024/03/03 10:58:58;;;;;;;12.40;12.10;;;;;;;;;;5021918;28;20469;-71
2024/03/03 11:01:25;;;;;;;12.00;11.70;;;;;;;;;;5022825;28;20489;-73
2024/03/03 11:03:53;;;;;;;12.10;11.80;;;;;;;;;;5016972;28;20509;-71
2024/03/03 11:06:21;;;;;;;12.47;12.17;;;;;;;;;;5022215;28;20484;-72
2024/03/03 11:08:52;;;;;;;13.10;12.70;;;;;;;;;;5023141;28;20634;-71
2024/03/03 11:11:22;;;;;;;12.73;12.43;;;;;;;;;;5026970;28;20522;-71
2024/03/03 11:13:52;;;;;;;12.73;12.43;;;;;;;;;;5028997;28;20463;-71
2024/03/03 11:16:21;;;;;;;12.70;12.40;;;;;;;;;;5026644;28;20463;-71
2024/03/03 11:18:50;;;;;;;12.50;12.20;;;;;;;;;;5024105;28;20512;-71
2024/03/03 11:21:23;;;;;;;12.40;12.10;;;;;;;;;;5020081;28;20822;-70
2024/03/03 11:23:51;;;;;;;12.30;12.00;;;;;;;;;;5022018;28;20465;-71
2024/03/03 11:26:26;;;;;;;12.20;11.90;;;;;;;;;;5019606;28;20513;-70
2024/03/03 11:28:56;;;;;;;12.40;12.10;;;;;;;;;;5017825;28;20462;-72
2024/03/03 11:31:24;;;;;;;12.70;12.30;;;;;;;;;;5011962;28;20483;-70
2024/03/03 11:33:52;;;;;;;12.57;12.27;;;;;;;;;;5010421;28;20497;-71
2024/03/03 11:36:20;;;;;;;12.30;12.00;;;;;;;;;;5012478;28;21194;-73
2024/03/03 11:38:47;;;;;;;12.60;12.30;;;;;;;;;;5015949;28;22320;-71
2024/03/03 11:41:19;;;;;;;12.80;12.40;;;;;;;;;;5015311;28;20472;-71
2024/03/03 11:43:47;;;;;;;13.23;12.83;;;;;;;;;;5014075;28;20548;-71
2024/03/03 11:46:30;;;;;;;13.33;12.93;;;;;;;;;;5014996;28;20488;-70
2024/03/03 11:49:02;;;;;;;13.20;12.80;;;;;;;;;;5013726;28;20561;-70
2024/03/03 11:51:30;;;;;;;13.43;13.03;;;;;;;;;;5015994;28;21003;-70
2024/03/03 11:54:01;;;;;;;13.40;13.00;;;;;;;;;;5015753;28;21000;-70
2024/03/03 11:56:30;;;;;;;12.73;12.33;;;;;;;;;;5012025;28;20805;-70
2024/03/03 11:58:56;;;;;;;13.10;12.70;;;;;;;;;;5015010;28;20525;-71
2024/03/03 12:01:23;;;;;;;13.13;12.73;;;;;;;;;;5015725;28;20564;-70
2024/03/03 12:03:51;;;;;;;13.30;12.90;;;;;;;;;;5014773;28;20480;-71
2024/03/03 12:06:21;;;;;;;13.73;13.33;;;;;;;;;;5014154;28;20551;-73
2024/03/03 12:08:52;;;;;;;13.90;13.50;;;;;;;;;;5014809;28;20552;-70
2024/03/03 12:11:19;;;;;;;13.40;13.00;;;;;;;;;;5016587;28;20467;-70
2024/03/03 12:13:46;;;;;;;13.23;12.83;;;;;;;;;;5012546;28;20462;-73
2024/03/03 12:16:13;;;;;;;13.47;13.07;;;;;;;;;;5015190;28;20463;-70
2024/03/03 12:18:41;;;;;;;13.63;13.23;;;;;;;;;;5015632;28;20467;-71
2024/03/03 12:21:08;;;;;;;14.43;14.03;;;;;;;;;;5013654;28;20472;-70
2024/03/03 12:23:37;;;;;;;13.23;12.83;;;;;;;;;;5012085;28;20472;-70
2024/03/03 12:26:04;;;;;;;12.90;12.50;;;;;;;;;;5011257;28;20474;-70
2024/03/03 12:28:32;;;;;;;13.80;13.40;;;;;;;;;;5015473;28;20496;-70
2024/03/03 12:30:59;;;;;;;13.83;13.43;;;;;;;;;;5014868;28;20479;-70
2024/03/03 12:33:28;;;;;;;14.27;13.80;;;;;;;;;;5015208;28;20470;-69
2024/03/03 12:35:55;;;;;;;14.10;13.70;;;;;;;;;;5016437;28;20987;-72
2024/03/03 12:38:23;;;;;;;14.67;14.17;;;;;;;;;;5015496;28;20465;-70
2024/03/03 12:40:51;;;;;;;14.60;14.10;;;;;;;;;;5012593;28;20467;-70
2024/03/03 12:43:19;;;;;;;14.00;13.60;;;;;;;;;;5012851;28;20834;-72
2024/03/03 12:45:47;;;;;;;14.20;13.80;;;;;;;;;;5014099;28;20481;-71
2024/03/03 12:48:14;;;;;;;14.13;13.70;;;;;;;;;;5013698;28;21024;-70
2024/03/03 12:50:41;;;;;;;13.60;13.20;;;;;;;;;;5014155;28;20965;-72
2024/03/03 12:53:09;;;;;;;14.53;14.03;;;;;;;;;;5014056;28;20493;-69
2024/03/03 12:55:36;;;;;;;14.80;14.30;;;;;;;;;;5011932;28;20476;-72
2024/03/03 12:58:06;;;;;;;14.87;14.37;;;;;;;;;;5015946;28;20468;-70
2024/03/03 13:00:33;;;;;;;14.90;14.40;;;;;;;;;;5011984;28;21000;-71
2024/03/03 13:03:01;;;;;;;15.10;14.60;;;;;;;;;;5014288;28;20472;-69
2024/03/03 13:05:28;;;;;;;15.03;14.53;;;;;;;;;;5012300;28;20462;-69
2024/03/03 13:07:56;;;;;;;14.33;13.83;;;;;;;;;;5016066;28;20490;-70
2024/03/03 13:10:23;;;;;;;14.60;14.10;;;;;;;;;;5015160;28;20548;-71
2024/03/03 13:12:51;;;;;;;14.60;14.10;;;;;;;;;;5012955;28;20508;-71
2024/03/03 13:15:20;;;;;;;15.13;14.63;;;;;;;;;;5012955;28;20823;-72
2024/03/03 13:18:02;;;;;;;15.57;14.97;;;;;;;;;;5015649;28;20925;-70
2024/03/03 13:20:30;;;;;;;15.30;14.80;;;;;;;;;;5010993;28;20479;-69
2024/03/03 13:23:07;;;;;;;15.70;15.10;;;;;;;;;;5011796;28;20967;-71
2024/03/03 13:25:35;;;;;;;15.80;15.20;;;;;;;;;;5013244;28;20471;-70
2024/03/03 13:28:02;;;;;;;15.50;15.00;;;;;;;;;;5015775;28;20498;-70
2024/03/03 13:30:30;;;;;;;15.50;14.90;;;;;;;;;;5015878;28;20462;-70
2024/03/03 13:32:57;;;;;;;15.07;14.57;;;;;;;;;;5012097;28;20468;-70
2024/03/03 13:35:25;;;;;;;14.70;14.20;;;;;;;;;;5012644;28;20842;-70
2024/03/03 13:37:52;;;;;;;14.53;14.03;;;;;;;;;;5013785;28;20462;-70
2024/03/03 13:40:19;;;;;;;14.60;14.10;;;;;;;;;;5012645;28;20463;-69
2024/03/03 13:42:47;;;;;;;14.90;14.40;;;;;;;;;;5014438;28;20502;-70
2024/03/03 13:45:14;;;;;;;15.10;14.60;;;;;;;;;;5011078;28;20460;-71
2024/03/03 13:47:43;;;;;;;15.00;14.50;;;;;;;;;;5010872;28;20585;-71
2024/03/03 13:50:10;;;;;;;15.20;14.70;;;;;;;;;;5012550;28;20572;-70
2024/03/03 13:52:38;;;;;;;14.70;14.20;;;;;;;;;;5012058;28;20869;-71
2024/03/03 13:55:06;;;;;;;14.80;14.30;;;;;;;;;;5013617;28;20522;-70
2024/03/03 13:57:33;;;;;;;15.07;14.57;;;;;;;;;;5012084;28;20873;-72
2024/03/03 14:00:00;;;;;;;15.07;14.57;;;;;;;;;;5014935;28;20486;-69
2024/03/03 14:02:28;;;;;;;14.57;14.07;;;;;;;;;;5013060;28;20896;-70
2024/03/03 14:04:56;;;;;;;14.70;14.20;;;;;;;;;;5011208;28;21070;-71
2024/03/03 14:07:23;;;;;;;15.37;14.87;;;;;;;;;;5012496;28;20864;-70
2024/03/03 14:09:51;;;;;;;15.40;14.90;;;;;;;;;;5012788;28;20472;-70
2024/03/03 14:12:20;;;;;;;15.67;15.17;;;;;;;;;;5014103;28;20474;-71
2024/03/03 14:14:47;;;;;;;15.27;14.77;;;;;;;;;;5014490;28;20590;-71
2024/03/03 14:17:14;;;;;;;15.00;14.50;;;;;;;;;;5011027;28;20983;-71
2024/03/03 14:19:41;;;;;;;14.90;14.40;;;;;;;;;;5008672;28;20992;-70
2024/03/03 14:22:11;;;;;;;15.00;14.50;;;;;;;;;;5012718;28;20556;-70
2024/03/03 14:24:38;;;;;;;15.30;14.80;;;;;;;;;;5014243;28;20471;-71